Terminal Aerodrome Forecast
Issued by NWS Duluth, MN

Home | Current Version | Previous Version | Text Only | Print | Product List | Glossary On
Versions: 1 2 3 4 5 6 7 8 9 10 11 12 13 14 15 16 17 18 19 20 21 22
138
FTUS43 KDLH 201143
TAFINL
TAF
KINL 201143Z 2012/2112 13005KT P6SM BKN120
     FM202100 23009G14KT P6SM VCSH OVC070
     FM210200 27013G22KT P6SM VCSH SCT010 BKN020
     FM210600 30020G30KT 5SM -SHSN SCT015 BKN025=

USA.gov is the U.S. government's official web portal to all federal, state and local government web resources and services.